Friday, January 18, 2019, 7:35 AM GMT
Back to Local

CWFQ, Frelighsburg

Location: , , Canada Lat: 45.05
Local Time: 7:35 AM GMT ( 7:35 GMT) Lon: -72.833
Time Zone: GMT Elev: 498 ft

Show me the last for .
Show Decoded

2019-01-18 07:00 METAR CWFQ 180700Z AUTO 16004KT M10/M18 RMK AO1 SOG 22 6026 SLP191 T10971175 =
2019-01-18 06:00 METAR CWFQ 180600Z AUTO 16005KT M11/M18 RMK AO1 SOG 22 6033 SLP197 T11071180 =
2019-01-18 05:00 METAR CWFQ 180500Z AUTO 18002KT M11/M20 RMK AO1 SOG 22 8031 SLP209 T11141198 =
2019-01-18 04:00 METAR CWFQ 180400Z AUTO 16005KT M13/M20 RMK AO1 SOG 22 8032 SLP220 T11261200 =
2019-01-18 03:00 METAR CWFQ 180300Z AUTO 15004KT M13/M20 RMK AO1 SOG 22 8027 SLP233 T11311201 =
2019-01-18 02:00 METAR CWFQ 180200Z AUTO 15003KT M14/M21 RMK AO1 SOG 22 8019 SLP243 T11411214 =
2019-01-18 01:00 METAR CWFQ 180100Z AUTO 17004KT M14/M22 RMK AO1 SOG 21 8009 SLP256 T11411219 =
2019-01-18 00:00 METAR CWFQ 180000Z AUTO 08001KT M15/M22 RMK AO1 SOG 22 6008 SLP262 T11531221 =
2019-01-17 23:00 METAR CWFQ 172300Z AUTO 06002KT M15/M23 RMK AO1 SOG 22 6015 SLP263 T11541226 =
2019-01-17 22:00 METAR CWFQ 172200Z AUTO 15001KT M15/M22 RMK AO1 SOG 22 8016 SLP264 T11451215 =
2019-01-17 21:00 METAR CWFQ 172100Z AUTO 15002KT M14/M23 RMK AO1 SOG 22 6022 SLP270 T11401227 =
2019-01-17 20:00 METAR CWFQ 172000Z AUTO 18003KT M14/M23 RMK AO1 SOG 21 6020 SLP278 T11381227 =
2019-01-17 19:00 METAR CWFQ 171900Z AUTO 36001KT M13/M24 RMK AO1 SOG 21 7029 SLP280 T11341239 =
2019-01-17 18:00 METAR CWFQ 171800Z AUTO 20002KT M15/M24 RMK AO1 SOG 21 8020 SLP291 T11451238 =
2019-01-17 17:00 METAR CWFQ 171700Z AUTO 14004KT M16/M23 RMK AO1 SOG 21 8008 SLP298 T11621234 =
2019-01-17 16:00 METAR CWFQ 171600Z AUTO 22003KT M17/M24 RMK AO1 SOG 21 0010 SLP309 T11741244 =
2019-01-17 15:00 METAR CWFQ 171500Z AUTO 23002KT M18/M25 RMK AO1 SOG 21 2018 SLP312 T11751249 =
2019-01-17 14:00 METAR CWFQ 171400Z AUTO 21003KT M20/M25 RMK AO1 SOG 21 3017 SLP307 T11951247 =
2019-01-17 13:00 METAR CWFQ 171300Z AUTO 19001KT M22/M24 RMK AO1 SOG 21 3013 SLP299 T12161242 =
2019-01-17 12:00 METAR CWFQ 171200Z AUTO 20001KT M21/M24 RMK AO1 SOG 21 1013 SLP293 T12101236 =
2019-01-17 11:00 METAR CWFQ 171100Z AUTO 29001KT M21/M24 RMK AO1 SOG 21 2013 SLP288 T12071236 =
2019-01-17 10:00 METAR CWFQ 171000Z AUTO 25001KT M21/M24 RMK AO1 SOG 21 1016 SLP283 T12081237 =
2019-01-17 09:00 METAR CWFQ 170900Z AUTO 24001KT M20/M23 RMK AO1 SOG 21 1019 SLP276 T12041232 =
2019-01-17 08:00 METAR CWFQ 170800Z AUTO 24001KT M20/M24 RMK AO1 SOG 21 3019 SLP272 T11981235 =

Support USWX by starting your Amazon purchase here.